createdAt,value
2022-10-04T00:01:27.534Z,2.05
2022-10-04T00:04:08.954Z,1.98
2022-10-04T00:06:38.288Z,1.98
2022-10-04T00:09:12.065Z,2.05
2022-10-04T00:11:44.845Z,2.25
2022-10-04T00:14:20.886Z,2.03
2022-10-04T00:16:49.452Z,2.35
2022-10-04T00:19:16.152Z,1.90
2022-10-04T00:21:56.398Z,2.20
2022-10-04T00:24:31.605Z,2.08
2022-10-04T00:27:24.734Z,2.15
2022-10-04T00:30:03.936Z,2.00
2022-10-04T00:32:41.764Z,2.27
2022-10-04T00:35:27.311Z,2.40
2022-10-04T00:38:15.733Z,2.10
2022-10-04T00:40:54.338Z,1.90
2022-10-04T00:43:37.794Z,2.13
2022-10-04T00:46:14.028Z,2.17
2022-10-04T00:48:46.624Z,2.28
2022-10-04T00:51:22.659Z,2.30
2022-10-04T00:54:05.883Z,2.95
2022-10-04T00:56:41.036Z,2.40
2022-10-04T00:59:43.413Z,2.50
2022-10-04T01:02:16.434Z,2.72
2022-10-04T01:04:49.960Z,2.40
2022-10-04T01:07:28.852Z,2.25
2022-10-04T01:10:01.727Z,2.55
2022-10-04T01:12:40.792Z,2.58
2022-10-04T01:15:35.462Z,2.33
2022-10-04T01:18:15.218Z,2.40
2022-10-04T01:20:57.036Z,2.80
2022-10-04T01:23:40.638Z,2.47
2022-10-04T01:26:30.009Z,2.90
2022-10-04T01:29:00.876Z,2.60
2022-10-04T01:31:29.433Z,2.35
2022-10-04T01:33:57.074Z,3.40
2022-10-04T01:36:23.988Z,3.08
2022-10-04T01:38:51.684Z,2.78
2022-10-04T01:41:25.451Z,2.75
2022-10-04T01:43:58.659Z,2.47
2022-10-04T01:46:36.436Z,2.45
2022-10-04T01:49:08.139Z,3.15
2022-10-04T01:51:42.248Z,3.05
2022-10-04T01:54:15.045Z,2.70
2022-10-04T01:56:46.884Z,3.13
2022-10-04T01:59:19.798Z,3.00
2022-10-04T02:02:04.710Z,2.88
2022-10-04T02:04:35.636Z,3.10
2022-10-04T02:07:04.069Z,3.10
2022-10-04T02:09:38.663Z,2.83
2022-10-04T02:12:06.629Z,3.63
2022-10-04T02:14:36.881Z,3.33
2022-10-04T02:17:10.635Z,3.05
2022-10-04T02:19:42.309Z,3.22
2022-10-04T02:22:11.484Z,3.47
2022-10-04T02:24:43.180Z,3.53
2022-10-04T02:27:10.233Z,3.78
2022-10-04T02:29:37.094Z,3.53
2022-10-04T02:32:24.999Z,3.40
2022-10-04T02:34:54.894Z,3.60
2022-10-04T02:37:27.277Z,3.60
2022-10-04T02:40:03.299Z,3.80
2022-10-04T02:43:14.912Z,3.92
2022-10-04T02:45:53.096Z,3.55
2022-10-04T02:48:26.099Z,3.97
2022-10-04T02:50:56.018Z,4.20
2022-10-04T02:53:38.324Z,3.72
2022-10-04T02:56:05.833Z,4.07
2022-10-04T02:58:32.879Z,4.22
2022-10-04T03:01:00.956Z,4.03
2022-10-04T03:03:47.557Z,4.65
2022-10-04T03:06:19.181Z,4.80
2022-10-04T03:08:51.359Z,4.20
2022-10-04T03:11:21.817Z,4.10
2022-10-04T03:13:56.542Z,4.45
2022-10-04T03:16:25.033Z,4.38
2022-10-04T03:18:56.710Z,4.97
2022-10-04T03:21:25.355Z,4.72
2022-10-04T03:23:53.615Z,4.57
2022-10-04T03:26:38.704Z,4.57
2022-10-04T03:29:10.244Z,4.57
2022-10-04T03:31:43.133Z,4.70
2022-10-04T03:34:16.284Z,5.00
2022-10-04T03:36:46.353Z,5.10
2022-10-04T03:39:27.326Z,4.22
2022-10-04T03:41:54.623Z,4.32
2022-10-04T03:44:23.306Z,4.65
2022-10-04T03:46:50.137Z,4.70
2022-10-04T03:49:26.212Z,4.80
2022-10-04T03:51:53.453Z,4.57
2022-10-04T03:54:25.584Z,4.20
2022-10-04T03:56:54.838Z,4.80
2022-10-04T03:59:24.923Z,3.60
2022-10-04T04:02:12.466Z,4.80
2022-10-04T04:04:52.668Z,4.93
2022-10-04T04:07:34.595Z,4.75
2022-10-04T04:10:18.459Z,4.80
2022-10-04T04:13:09.417Z,4.47
2022-10-04T04:15:36.578Z,4.00
2022-10-04T04:18:07.840Z,3.75
2022-10-04T04:20:38.418Z,3.90
2022-10-04T04:23:12.592Z,4.15
2022-10-04T04:25:42.187Z,3.97
2022-10-04T04:28:52.074Z,4.68
2022-10-04T04:31:21.102Z,4.30
2022-10-04T04:34:00.529Z,4.35
2022-10-04T04:36:31.009Z,3.90
2022-10-04T04:39:44.767Z,3.63
2022-10-04T04:42:19.422Z,3.78
2022-10-04T04:45:17.417Z,3.78
2022-10-04T04:47:53.338Z,3.92
2022-10-04T04:50:23.823Z,4.43
2022-10-04T04:52:58.816Z,3.85
2022-10-04T04:56:03.254Z,3.95
2022-10-04T04:58:45.945Z,4.32
2022-10-04T05:01:24.205Z,4.47
2022-10-04T05:04:23.853Z,3.88
2022-10-04T05:07:16.358Z,3.35
2022-10-04T05:09:43.383Z,3.45
2022-10-04T05:12:17.008Z,3.35
2022-10-04T05:14:50.763Z,3.00
2022-10-04T05:17:24.907Z,3.45
2022-10-04T05:19:57.811Z,2.67
2022-10-04T05:22:47.785Z,2.65
2022-10-04T05:25:26.579Z,2.95
2022-10-04T05:27:54.681Z,3.08
2022-10-04T05:30:57.766Z,2.90
2022-10-04T05:33:36.711Z,2.97
2022-10-04T05:36:13.763Z,2.65
2022-10-04T05:38:46.668Z,2.70
2022-10-04T05:41:42.380Z,2.78
2022-10-04T05:44:27.559Z,2.78
2022-10-04T05:47:01.515Z,2.45
2022-10-04T05:49:34.941Z,3.00
2022-10-04T05:52:04.036Z,2.97
2022-10-04T05:54:35.694Z,2.47
2022-10-04T05:57:25.853Z,4.38
2022-10-04T06:00:03.939Z,2.92
2022-10-04T06:02:57.857Z,2.42
2022-10-04T06:05:29.180Z,2.50
2022-10-04T06:08:33.758Z,2.83
2022-10-04T06:11:22.603Z,2.67
2022-10-04T06:14:22.560Z,2.92
2022-10-04T06:17:14.685Z,2.55
2022-10-04T06:19:51.236Z,2.65
2022-10-04T06:22:20.396Z,1.80
2022-10-04T06:24:58.947Z,2.17
2022-10-04T06:27:54.625Z,2.28
2022-10-04T06:30:21.912Z,2.38
2022-10-04T06:33:45.951Z,2.55
2022-10-04T06:36:29.517Z,2.60
2022-10-04T06:39:20.935Z,2.38
2022-10-04T06:42:35.370Z,2.20
2022-10-04T06:45:30.268Z,2.13
2022-10-04T06:48:06.389Z,1.98
2022-10-04T06:50:49.951Z,2.17
2022-10-04T06:53:26.809Z,2.30
2022-10-04T06:56:12.177Z,3.13
2022-10-04T06:58:54.154Z,2.22
2022-10-04T07:01:29.417Z,2.00
2022-10-04T07:04:21.964Z,2.10
2022-10-04T07:07:20.366Z,2.03
2022-10-04T07:09:48.872Z,2.63
2022-10-04T07:12:17.927Z,2.47
2022-10-04T07:14:56.154Z,2.67
2022-10-04T07:17:37.860Z,2.38
2022-10-04T07:20:06.763Z,3.22
2022-10-04T07:22:47.626Z,2.60
2022-10-04T07:25:28.983Z,2.00
2022-10-04T07:28:29.437Z,2.17
2022-10-04T07:31:03.747Z,2.22
2022-10-04T07:33:35.800Z,2.75
2022-10-04T07:36:24.403Z,2.45
2022-10-04T07:39:00.186Z,2.65
2022-10-04T07:41:33.940Z,2.63
2022-10-04T07:44:16.102Z,2.67
2022-10-04T07:46:43.046Z,2.42
2022-10-04T07:49:21.717Z,2.40
2022-10-04T07:52:10.615Z,2.58
2022-10-04T07:54:56.362Z,2.40
2022-10-04T07:58:08.362Z,2.13
2022-10-04T08:01:24.881Z,2.22
2022-10-04T08:04:18.750Z,2.30
2022-10-04T08:06:59.365Z,2.42
2022-10-04T08:10:08.334Z,2.10
2022-10-04T08:12:58.484Z,2.25
2022-10-04T08:15:36.051Z,2.22
2022-10-04T08:18:10.189Z,2.38
2022-10-04T08:21:01.852Z,2.78
2022-10-04T08:24:02.818Z,3.40
2022-10-04T08:26:53.682Z,2.10
2022-10-04T08:29:43.790Z,2.38
2022-10-04T08:32:29.612Z,2.05
2022-10-04T08:35:21.361Z,2.25
2022-10-04T08:38:07.073Z,3.08
2022-10-04T08:41:01.981Z,2.35
2022-10-04T08:43:43.139Z,2.05
2022-10-04T08:46:10.104Z,2.22
2022-10-04T08:49:18.966Z,1.85
2022-10-04T08:52:28.674Z,2.33
2022-10-04T08:55:29.063Z,2.08
2022-10-04T08:58:34.255Z,2.30
2022-10-04T09:01:39.785Z,2.15
2022-10-04T09:04:33.745Z,2.20
2022-10-04T09:07:28.654Z,2.40
2022-10-04T09:10:14.391Z,2.22
2022-10-04T09:13:22.218Z,2.30
2022-10-04T09:15:53.229Z,2.15
2022-10-04T09:18:48.409Z,2.10
2022-10-04T09:21:29.017Z,2.83
2022-10-04T09:24:17.730Z,2.15
2022-10-04T09:26:54.250Z,2.28
2022-10-04T09:29:37.537Z,2.33
2022-10-04T09:32:32.702Z,1.92
2022-10-04T09:35:18.701Z,3.50
2022-10-04T09:38:23.286Z,1.73
2022-10-04T09:41:01.089Z,1.75
2022-10-04T09:43:28.415Z,2.17
2022-10-04T09:46:37.517Z,1.67
2022-10-04T09:49:27.558Z,1.80
2022-10-04T09:52:05.857Z,1.75
2022-10-04T09:54:59.212Z,2.88
2022-10-04T09:57:29.808Z,1.83
2022-10-04T10:00:26.924Z,2.10
2022-10-04T10:03:17.414Z,1.88
2022-10-04T10:06:14.741Z,1.88
2022-10-04T10:09:01.999Z,1.65
2022-10-04T10:12:23.107Z,1.70
2022-10-04T10:15:13.322Z,1.45
2022-10-04T10:17:48.497Z,1.58
2022-10-04T10:20:23.091Z,1.90
2022-10-04T10:23:12.462Z,1.63
2022-10-04T10:26:33.151Z,1.60
2022-10-04T10:29:32.541Z,1.50
2022-10-04T10:32:23.465Z,1.58
2022-10-04T10:34:59.806Z,1.55
2022-10-04T10:37:39.567Z,1.52
2022-10-04T10:40:41.118Z,1.60
2022-10-04T10:43:26.996Z,1.73
2022-10-04T10:45:55.521Z,1.42
2022-10-04T10:48:22.505Z,1.63
2022-10-04T10:51:23.162Z,1.70
2022-10-04T10:54:30.383Z,1.60
2022-10-04T10:57:07.063Z,1.40
2022-10-04T11:00:12.254Z,1.45
2022-10-04T11:02:50.016Z,1.65
2022-10-04T11:06:01.623Z,1.80
2022-10-04T11:08:57.091Z,1.60
2022-10-04T11:12:01.103Z,1.80
2022-10-04T11:14:53.593Z,1.80
2022-10-04T11:17:38.812Z,2.10
2022-10-04T11:20:24.389Z,1.38
2022-10-04T11:23:07.493Z,1.80
2022-10-04T11:25:52.052Z,1.27
2022-10-04T11:28:46.743Z,1.60
2022-10-04T11:31:32.654Z,1.63
2022-10-04T11:34:18.421Z,1.88
2022-10-04T11:37:12.293Z,1.90
2022-10-04T11:39:57.959Z,1.90
2022-10-04T11:42:53.083Z,1.85
2022-10-04T11:45:34.072Z,2.30
2022-10-04T11:48:15.999Z,2.20
2022-10-04T11:53:58.721Z,1.90
2022-10-04T11:56:45.634Z,2.22
2022-10-04T11:59:28.535Z,1.95
2022-10-04T12:02:42.185Z,1.35
2022-10-04T12:05:18.355Z,2.10
2022-10-04T12:08:02.076Z,2.50
2022-10-04T12:10:36.207Z,2.55
2022-10-04T12:13:21.537Z,2.10
2022-10-04T12:16:06.945Z,2.30
2022-10-04T12:18:52.171Z,1.90
2022-10-04T12:21:36.801Z,1.55
2022-10-04T12:24:42.163Z,1.60
2022-10-04T12:27:13.634Z,1.58
2022-10-04T12:30:01.055Z,1.70
2022-10-04T12:32:43.221Z,1.45
2022-10-04T12:35:41.041Z,1.52
2022-10-04T12:38:31.865Z,1.65
2022-10-04T12:41:17.488Z,1.63
2022-10-04T12:44:32.196Z,1.65
2022-10-04T12:47:29.773Z,2.33
2022-10-04T12:50:22.343Z,1.88
2022-10-04T12:53:32.186Z,1.60
2022-10-04T12:56:08.222Z,1.35
2022-10-04T12:58:58.573Z,2.45
2022-10-04T13:01:37.678Z,1.88
2022-10-04T13:04:14.886Z,1.67
2022-10-04T13:07:08.266Z,1.70
2022-10-04T13:10:05.414Z,1.70
2022-10-04T13:12:47.104Z,1.60
2022-10-04T13:18:45.101Z,1.80
2022-10-04T13:21:36.616Z,1.80
2022-10-04T13:24:53.930Z,1.85
2022-10-04T13:27:59.491Z,1.90
2022-10-04T13:30:35.905Z,1.70
2022-10-04T13:33:06.031Z,1.90
2022-10-04T13:36:08.669Z,1.77
2022-10-04T13:38:38.069Z,1.88
2022-10-04T13:41:04.833Z,1.60
2022-10-04T13:43:56.613Z,2.00
2022-10-04T13:46:41.817Z,2.20
2022-10-04T13:49:49.145Z,1.67
2022-10-04T13:52:41.216Z,1.58
2022-10-04T13:57:58.337Z,1.60
2022-10-04T14:00:53.051Z,1.88
2022-10-04T14:03:33.846Z,1.40
2022-10-04T14:06:19.459Z,1.85
2022-10-04T14:09:01.192Z,2.38
2022-10-04T14:11:54.481Z,2.00
2022-10-04T14:14:21.326Z,4.30
2022-10-04T14:17:32.731Z,3.70
2022-10-04T14:20:08.453Z,3.23
2022-10-04T14:23:12.329Z,2.55
2022-10-04T14:25:58.479Z,2.25
2022-10-04T14:28:53.317Z,2.38
2022-10-04T14:31:51.069Z,2.13
2022-10-04T14:34:55.265Z,2.55
2022-10-04T14:38:00.532Z,2.63
2022-10-04T14:40:37.468Z,2.10
2022-10-04T14:43:41.739Z,2.10
2022-10-04T14:46:56.051Z,2.10
2022-10-04T14:50:00.895Z,2.03
2022-10-04T14:52:36.100Z,2.72
2022-10-04T14:55:38.448Z,2.65
2022-10-04T14:58:23.947Z,2.33
2022-10-04T15:01:12.518Z,2.10
2022-10-04T15:03:55.349Z,2.15
2022-10-04T15:06:49.151Z,2.47
2022-10-04T15:09:25.281Z,2.55
2022-10-04T15:14:58.510Z,2.63
2022-10-04T15:17:38.074Z,2.38
2022-10-04T15:20:20.183Z,2.20
2022-10-04T15:22:54.257Z,2.13
2022-10-04T15:25:43.082Z,2.10
2022-10-04T15:28:52.487Z,2.05
2022-10-04T15:31:39.146Z,2.65
2022-10-04T15:34:47.589Z,2.10
2022-10-04T15:37:25.360Z,1.65
2022-10-04T15:40:23.350Z,2.20
2022-10-04T15:43:10.260Z,1.63
2022-10-04T15:46:03.605Z,2.30
2022-10-04T15:49:08.339Z,2.17
2022-10-04T15:51:49.512Z,3.50
2022-10-04T15:54:40.197Z,3.60
2022-10-04T15:57:38.916Z,3.50
2022-10-04T16:00:41.130Z,3.15
2022-10-04T16:03:50.464Z,2.72
2022-10-04T16:06:25.299Z,3.28
2022-10-04T16:09:11.015Z,3.70
2022-10-04T16:11:50.800Z,3.40
2022-10-04T16:14:52.418Z,3.47
2022-10-04T16:17:22.759Z,3.20
2022-10-04T16:20:00.080Z,4.47
2022-10-04T16:22:30.436Z,3.40
2022-10-04T16:25:25.769Z,3.00
2022-10-04T16:27:56.041Z,3.65
2022-10-04T16:30:28.847Z,4.40
2022-10-04T16:32:58.851Z,4.05
2022-10-04T16:35:35.010Z,3.30
2022-10-04T16:38:14.449Z,3.30
2022-10-04T16:40:53.204Z,3.20
2022-10-04T16:43:20.400Z,2.80
2022-10-04T16:46:06.094Z,3.33
2022-10-04T16:48:47.060Z,2.80
2022-10-04T16:51:16.846Z,2.70
2022-10-04T16:54:04.643Z,3.20
2022-10-04T16:56:57.384Z,3.03
2022-10-04T16:59:36.824Z,3.75
2022-10-04T17:02:28.350Z,3.15
2022-10-04T17:05:22.463Z,3.22
2022-10-04T17:07:58.947Z,4.20
2022-10-04T17:11:27.854Z,3.03
2022-10-04T17:14:00.209Z,2.85
2022-10-04T17:16:38.722Z,3.10
2022-10-04T17:19:16.175Z,2.80
2022-10-04T17:21:46.206Z,2.90
2022-10-04T17:24:22.671Z,4.68
2022-10-04T17:27:18.979Z,3.70
2022-10-04T17:30:04.163Z,2.95
2022-10-04T17:33:07.607Z,2.85
2022-10-04T17:36:14.135Z,2.90
2022-10-04T17:39:07.569Z,2.67
2022-10-04T17:42:09.330Z,2.85
2022-10-04T17:44:49.432Z,3.15
2022-10-04T17:48:04.052Z,2.92
2022-10-04T17:51:04.902Z,3.08
2022-10-04T17:53:55.548Z,2.88
2022-10-04T17:56:43.171Z,3.15
2022-10-04T17:59:16.186Z,3.00
2022-10-04T18:01:49.042Z,3.15
2022-10-04T18:04:30.534Z,2.90
2022-10-04T18:07:08.904Z,3.03
2022-10-04T18:09:45.616Z,3.10
2022-10-04T18:12:31.506Z,3.78
2022-10-04T18:15:07.570Z,3.13
2022-10-04T18:17:40.603Z,3.42
2022-10-04T18:20:29.393Z,3.08
2022-10-04T18:23:02.661Z,3.22
2022-10-04T18:25:32.168Z,3.88
2022-10-04T18:28:13.324Z,3.97
2022-10-04T18:30:46.427Z,4.40
2022-10-04T18:33:26.156Z,3.72
2022-10-04T18:36:12.463Z,3.75
2022-10-04T18:38:42.864Z,4.03
2022-10-04T18:41:20.312Z,3.88
2022-10-04T18:43:52.347Z,3.95
2022-10-04T18:49:01.662Z,4.18
2022-10-04T18:51:51.351Z,4.00
2022-10-04T18:54:33.971Z,4.30
2022-10-04T18:57:16.668Z,4.55
2022-10-04T19:00:20.367Z,3.80
2022-10-04T19:03:15.922Z,3.90
2022-10-04T19:06:15.286Z,3.92
2022-10-04T19:08:53.332Z,4.60
2022-10-04T19:11:24.126Z,4.82
2022-10-04T19:14:08.252Z,4.68
2022-10-04T19:16:41.679Z,4.95
2022-10-04T19:19:17.644Z,4.90
2022-10-04T19:21:45.233Z,5.25
2022-10-04T19:24:57.891Z,4.35
2022-10-04T19:27:30.426Z,4.60
2022-10-04T19:30:04.788Z,4.72
2022-10-04T19:32:57.678Z,4.30
2022-10-04T19:35:49.813Z,4.43
2022-10-04T19:38:41.866Z,4.13
2022-10-04T19:41:15.261Z,3.95
2022-10-04T19:44:05.844Z,4.07
2022-10-04T19:46:38.740Z,4.05
2022-10-04T19:49:21.367Z,4.68
2022-10-04T19:51:54.481Z,4.38
2022-10-04T19:54:35.693Z,4.88
2022-10-04T19:57:10.225Z,4.40
2022-10-04T19:59:40.903Z,4.65
2022-10-04T20:02:11.958Z,4.55
2022-10-04T20:04:40.200Z,4.18
2022-10-04T20:07:27.187Z,5.57
2022-10-04T20:10:06.464Z,5.40
2022-10-04T20:12:42.060Z,5.68
2022-10-04T20:15:13.447Z,6.10
2022-10-04T20:17:42.399Z,5.65
2022-10-04T20:20:15.778Z,4.93
2022-10-04T20:22:55.841Z,4.90
2022-10-04T20:25:45.561Z,5.25
2022-10-04T20:28:32.494Z,4.15
2022-10-04T20:31:02.001Z,4.78
2022-10-04T20:33:35.111Z,4.47
2022-10-04T20:36:02.491Z,5.10
2022-10-04T20:38:54.281Z,6.97
2022-10-04T20:41:50.342Z,6.18
2022-10-04T20:44:40.217Z,6.35
2022-10-04T20:47:39.615Z,5.95
2022-10-04T20:50:20.231Z,6.30
2022-10-04T20:52:53.283Z,5.93
2022-10-04T20:55:28.059Z,5.72
2022-10-04T20:58:01.018Z,5.20
2022-10-04T21:00:33.676Z,4.20
2022-10-04T21:03:09.830Z,4.70
2022-10-04T21:05:37.074Z,5.03
2022-10-04T21:08:21.588Z,4.38
2022-10-04T21:11:09.034Z,4.22
2022-10-04T21:13:52.872Z,4.53
2022-10-04T21:16:39.667Z,5.05
2022-10-04T21:19:43.020Z,4.43
2022-10-04T21:22:15.902Z,5.32
2022-10-04T21:24:48.906Z,5.07
2022-10-04T21:27:30.478Z,4.65
2022-10-04T21:29:59.025Z,4.60
2022-10-04T21:32:27.085Z,4.80
2022-10-04T21:34:54.924Z,4.32
2022-10-04T21:37:22.368Z,5.32
2022-10-04T21:39:49.209Z,5.13
2022-10-04T21:42:16.189Z,4.18
2022-10-04T21:44:43.469Z,4.82
2022-10-04T21:47:11.167Z,5.13
2022-10-04T21:49:37.937Z,4.88
2022-10-04T21:52:05.030Z,4.32
2022-10-04T21:54:32.026Z,4.78
2022-10-04T21:56:59.292Z,4.60
2022-10-04T21:59:26.308Z,4.25
2022-10-04T22:01:53.248Z,5.03
2022-10-04T22:04:20.185Z,4.63
2022-10-04T22:06:47.525Z,4.63
2022-10-04T22:09:14.598Z,4.28
2022-10-04T22:11:41.531Z,4.38
2022-10-04T22:14:08.457Z,4.57
2022-10-04T22:16:35.356Z,4.63
2022-10-04T22:19:02.369Z,5.03
2022-10-04T22:21:29.613Z,5.28
2022-10-04T22:23:56.725Z,4.90
2022-10-04T22:26:26.289Z,4.50
2022-10-04T22:28:55.544Z,5.22
2022-10-04T22:31:27.594Z,5.45
2022-10-04T22:33:55.201Z,5.32
2022-10-04T22:36:50.187Z,5.25
2022-10-04T22:39:19.592Z,4.70
2022-10-04T22:41:53.466Z,4.50
2022-10-04T22:44:29.577Z,4.47
2022-10-04T22:47:00.089Z,4.30
2022-10-04T22:49:31.350Z,4.78
2022-10-04T22:52:00.662Z,5.10
2022-10-04T22:54:32.120Z,4.63
2022-10-04T22:56:59.831Z,5.18
2022-10-04T22:59:39.400Z,4.90
2022-10-04T23:02:12.999Z,5.05
2022-10-04T23:04:41.440Z,4.65
2022-10-04T23:07:08.429Z,5.30
2022-10-04T23:09:35.189Z,5.10
2022-10-04T23:12:02.632Z,4.65
2022-10-04T23:14:29.467Z,5.07
2022-10-04T23:16:56.306Z,4.93
2022-10-04T23:19:23.229Z,4.90
2022-10-04T23:21:50.234Z,4.60
2022-10-04T23:24:19.316Z,4.45
2022-10-04T23:26:55.251Z,4.03
2022-10-04T23:29:25.842Z,4.72
2022-10-04T23:31:53.407Z,4.47
2022-10-04T23:34:28.890Z,4.18
2022-10-04T23:36:57.026Z,4.32
2022-10-04T23:39:28.619Z,4.45
2022-10-04T23:41:56.798Z,4.97
2022-10-04T23:44:27.136Z,4.10
2022-10-04T23:46:54.018Z,4.35
2022-10-04T23:49:22.798Z,4.78
2022-10-04T23:51:58.159Z,4.03
2022-10-04T23:54:26.373Z,4.43
2022-10-04T23:56:53.526Z,4.88
2022-10-04T23:59:23.921Z,4.82
